createdAt,value
2023-04-15T00:02:43.037Z,96579.78
2023-04-15T00:05:32.714Z,96585.25
2023-04-15T00:08:21.724Z,96582.09
2023-04-15T00:11:10.804Z,96576.56
2023-04-15T00:14:00.396Z,96578.09
2023-04-15T00:16:55.232Z,96570.16
2023-04-15T00:19:45.952Z,96568.25
2023-04-15T00:22:34.819Z,96573.94
2023-04-15T00:25:23.799Z,96560.59
2023-04-15T00:28:12.648Z,96561.53
2023-04-15T00:31:01.604Z,96562.16
2023-04-15T00:33:50.411Z,96549.78
2023-04-15T00:36:40.737Z,96550.84
2023-04-15T00:39:29.672Z,96549.41
2023-04-15T00:42:20.162Z,96548.53
2023-04-15T00:45:10.284Z,96543.19
2023-04-15T00:47:59.823Z,96545.38
2023-04-15T00:50:48.631Z,96542.00
2023-04-15T00:53:38.854Z,96543.72
2023-04-15T00:56:30.458Z,96543.25
2023-04-15T00:59:19.874Z,96543.31
2023-04-15T01:02:09.192Z,96534.94
2023-04-15T01:04:58.367Z,96534.72
2023-04-15T01:07:49.310Z,96531.91
2023-04-15T01:10:40.116Z,96538.81
2023-04-15T01:13:29.358Z,96538.94
2023-04-15T01:16:19.365Z,96532.16
2023-04-15T01:19:12.102Z,96540.44
2023-04-15T01:22:01.416Z,96532.78
2023-04-15T01:25:04.704Z,96539.53
2023-04-15T01:27:55.370Z,96537.41
2023-04-15T01:30:44.661Z,96535.97
2023-04-15T01:33:33.491Z,96533.81
2023-04-15T01:36:41.063Z,96536.03
2023-04-15T01:39:29.797Z,96540.56
2023-04-15T01:42:19.009Z,96537.41
2023-04-15T01:45:12.425Z,96537.88
2023-04-15T01:48:02.541Z,96530.56
2023-04-15T01:50:57.587Z,96526.34
2023-04-15T01:53:47.636Z,96516.91
2023-04-15T01:56:37.681Z,96519.00
2023-04-15T01:59:27.813Z,96526.22
2023-04-15T02:02:19.516Z,96525.41
2023-04-15T02:05:10.940Z,96531.56
2023-04-15T02:08:01.074Z,96522.81
2023-04-15T02:10:51.207Z,96521.94
2023-04-15T02:13:41.738Z,96529.59
2023-04-15T02:16:32.170Z,96525.75
2023-04-15T02:19:23.645Z,96526.28
2023-04-15T02:22:18.424Z,96519.00
2023-04-15T02:25:11.604Z,96523.03
2023-04-15T02:28:01.909Z,96518.09
2023-04-15T02:30:53.489Z,96525.41
2023-04-15T02:33:43.855Z,96520.84
2023-04-15T02:36:35.668Z,96521.72
2023-04-15T02:39:25.781Z,96534.72
2023-04-15T02:42:15.842Z,96531.56
2023-04-15T02:45:07.955Z,96526.03
2023-04-15T02:47:58.904Z,96526.22
2023-04-15T02:50:49.277Z,96522.78
2023-04-15T02:53:42.266Z,96526.25
2023-04-15T02:56:32.453Z,96526.16
2023-04-15T02:59:23.078Z,96528.78
2023-04-15T03:02:13.308Z,96527.00
2023-04-15T03:05:04.143Z,96535.94
2023-04-15T03:07:54.858Z,96536.94
2023-04-15T03:10:46.766Z,96531.44
2023-04-15T03:13:36.886Z,96530.84
2023-04-15T03:16:33.974Z,96529.16
2023-04-15T03:19:28.739Z,96527.31
2023-04-15T03:22:19.030Z,96532.25
2023-04-15T03:25:10.821Z,96529.34
2023-04-15T03:28:03.449Z,96532.97
2023-04-15T03:30:54.238Z,96528.22
2023-04-15T03:33:44.499Z,96531.38
2023-04-15T03:36:34.636Z,96526.56
2023-04-15T03:39:25.031Z,96524.41
2023-04-15T03:42:15.034Z,96525.84
2023-04-15T03:45:08.685Z,96530.81
2023-04-15T03:48:07.273Z,96530.13
2023-04-15T03:51:06.588Z,96518.25
2023-04-15T03:53:57.056Z,96522.09
2023-04-15T03:56:47.351Z,96522.47
2023-04-15T03:59:37.461Z,96522.47
2023-04-15T04:02:29.127Z,96527.78
2023-04-15T04:05:19.463Z,96524.06
2023-04-15T04:08:09.765Z,96533.56
2023-04-15T04:11:00.263Z,96528.34
2023-04-15T04:13:50.384Z,96526.88
2023-04-15T04:16:40.655Z,96527.81
2023-04-15T04:19:32.205Z,96536.13
2023-04-15T04:22:24.917Z,96539.19
2023-04-15T04:25:15.051Z,96537.66
2023-04-15T04:28:05.603Z,96541.31
2023-04-15T04:30:55.774Z,96545.31
2023-04-15T04:33:45.858Z,96551.97
2023-04-15T04:36:37.355Z,96545.59
2023-04-15T04:39:27.603Z,96559.34
2023-04-15T04:42:17.769Z,96556.56
2023-04-15T04:45:08.945Z,96566.44
2023-04-15T04:47:59.699Z,96560.59
2023-04-15T04:50:50.268Z,96563.13
2023-04-15T04:53:43.052Z,96569.00
2023-04-15T04:56:34.347Z,96574.66
2023-04-15T04:59:24.625Z,96575.56
2023-04-15T05:02:14.861Z,96581.63
2023-04-15T05:05:05.846Z,96581.66
2023-04-15T05:07:56.342Z,96580.34
2023-04-15T05:10:47.997Z,96580.34
2023-04-15T05:13:38.963Z,96580.66
2023-04-15T05:16:29.058Z,96573.94
2023-04-15T05:19:19.099Z,96572.41
2023-04-15T05:22:09.556Z,96569.91
2023-04-15T05:24:59.912Z,96574.00
2023-04-15T05:27:51.609Z,96574.59
2023-04-15T05:30:42.218Z,96583.84
2023-04-15T05:33:32.537Z,96581.94
2023-04-15T05:36:22.917Z,96575.53
2023-04-15T05:39:13.064Z,96572.66
2023-04-15T05:42:03.561Z,96575.06
2023-04-15T05:44:55.181Z,96570.38
2023-04-15T05:47:45.260Z,96578.97
2023-04-15T05:50:35.873Z,96584.03
2023-04-15T05:53:26.117Z,96584.19
2023-04-15T05:56:16.124Z,96583.34
2023-04-15T05:59:06.607Z,96590.66
2023-04-15T06:01:58.245Z,96579.84
2023-04-15T06:04:48.458Z,96581.72
2023-04-15T06:07:39.137Z,96580.28
2023-04-15T06:10:29.210Z,96582.38
2023-04-15T06:13:19.499Z,96583.50
2023-04-15T06:16:09.592Z,96583.72
2023-04-15T06:19:01.284Z,96578.69
2023-04-15T06:21:51.706Z,96584.25
2023-04-15T06:24:41.868Z,96581.31
2023-04-15T06:27:32.476Z,96582.41
2023-04-15T06:30:24.384Z,96581.00
2023-04-15T06:33:14.770Z,96584.44
2023-04-15T06:36:06.501Z,96584.28
2023-04-15T06:38:56.583Z,96587.50
2023-04-15T06:41:46.822Z,96587.56
2023-04-15T06:44:37.349Z,96588.53
2023-04-15T06:47:27.545Z,96584.13
2023-04-15T06:50:17.822Z,96585.13
2023-04-15T06:53:09.443Z,96589.66
2023-04-15T06:55:59.593Z,96588.66
2023-04-15T06:58:49.627Z,96600.16
2023-04-15T07:01:39.754Z,96593.59
2023-04-15T07:04:29.935Z,96588.44
2023-04-15T07:07:20.133Z,96593.22
2023-04-15T07:10:13.056Z,96601.84
2023-04-15T07:13:03.388Z,96592.38
2023-04-15T07:15:53.701Z,96590.25
2023-04-15T07:18:43.795Z,96589.31
2023-04-15T07:21:34.200Z,96597.88
2023-04-15T07:24:26.727Z,96597.22
2023-04-15T07:27:18.104Z,96594.31
2023-04-15T07:30:10.570Z,96600.78
2023-04-15T07:33:01.334Z,96606.31
2023-04-15T07:35:51.515Z,96603.34
2023-04-15T07:38:41.623Z,96608.91
2023-04-15T07:41:32.032Z,96611.78
2023-04-15T07:44:23.558Z,96606.38
2023-04-15T07:47:14.303Z,96609.31
2023-04-15T07:50:04.727Z,96608.47
2023-04-15T07:52:55.303Z,96616.88
2023-04-15T07:55:45.542Z,96617.66
2023-04-15T07:58:35.751Z,96618.34
2023-04-15T08:01:27.609Z,96622.53
2023-04-15T08:04:18.367Z,96623.41
2023-04-15T08:07:08.578Z,96626.63
2023-04-15T08:09:58.791Z,96625.41
2023-04-15T08:12:49.925Z,96621.59
2023-04-15T08:15:39.984Z,96628.81
2023-04-15T08:18:31.659Z,96622.78
2023-04-15T08:21:22.410Z,96626.31
2023-04-15T08:24:12.993Z,96632.78
2023-04-15T08:27:05.800Z,96632.84
2023-04-15T08:29:56.127Z,96644.69
2023-04-15T08:32:48.109Z,96645.28
2023-04-15T08:35:39.642Z,96641.47
2023-04-15T08:38:29.790Z,96638.16
2023-04-15T08:41:25.345Z,96646.41
2023-04-15T08:44:16.435Z,96645.72
2023-04-15T08:47:11.403Z,96649.38
2023-04-15T08:50:05.526Z,96648.75
2023-04-15T08:53:00.469Z,96647.75
2023-04-15T08:55:57.284Z,96642.72
2023-04-15T08:58:48.903Z,96645.88
2023-04-15T09:01:40.347Z,96652.31
2023-04-15T09:04:31.710Z,96652.34
2023-04-15T09:07:21.958Z,96647.63
2023-04-15T09:10:14.333Z,96647.09
2023-04-15T09:13:04.682Z,96650.53
2023-04-15T09:15:55.591Z,96661.63
2023-04-15T09:18:45.705Z,96663.09
2023-04-15T09:21:36.138Z,96656.56
2023-04-15T09:24:28.089Z,96662.69
2023-04-15T09:27:19.695Z,96666.13
2023-04-15T09:30:12.837Z,96668.03
2023-04-15T09:33:08.379Z,96677.16
2023-04-15T09:36:01.667Z,96675.47
2023-04-15T09:38:57.464Z,96677.81
2023-04-15T09:41:47.822Z,96675.22
2023-04-15T09:44:40.876Z,96677.53
2023-04-15T09:47:32.702Z,96682.59
2023-04-15T09:50:22.981Z,96684.03
2023-04-15T09:53:18.303Z,96687.22
2023-04-15T09:56:10.572Z,96684.56
2023-04-15T09:59:00.786Z,96686.41
2023-04-15T10:01:52.725Z,96676.72
2023-04-15T10:04:43.252Z,96678.88
2023-04-15T10:07:35.182Z,96685.19
2023-04-15T10:10:26.483Z,96681.16
2023-04-15T10:13:20.617Z,96676.38
2023-04-15T10:16:15.975Z,96681.00
2023-04-15T10:19:10.754Z,96685.84
2023-04-15T10:22:01.600Z,96688.03
2023-04-15T10:24:53.819Z,96679.94
2023-04-15T10:27:44.735Z,96681.50
2023-04-15T10:30:35.579Z,96677.38
2023-04-15T10:33:31.888Z,96680.53
2023-04-15T10:36:24.405Z,96676.00
2023-04-15T10:39:46.039Z,96674.72
2023-04-15T10:42:36.560Z,96678.66
2023-04-15T10:45:28.803Z,96668.63
2023-04-15T10:48:20.173Z,96679.38
2023-04-15T10:51:10.329Z,96672.94
2023-04-15T10:54:02.354Z,96673.56
2023-04-15T10:57:08.455Z,96680.28
2023-04-15T11:00:11.505Z,96679.63
2023-04-15T11:03:12.374Z,96673.75
2023-04-15T11:06:02.981Z,96672.34
2023-04-15T11:09:06.762Z,96681.25
2023-04-15T11:12:10.523Z,96693.50
2023-04-15T11:15:01.706Z,96687.63
2023-04-15T11:17:52.864Z,96698.94
2023-04-15T11:20:48.717Z,96692.28
2023-04-15T11:23:44.425Z,96695.22
2023-04-15T11:26:40.099Z,96706.72
2023-04-15T11:29:32.560Z,96703.94
2023-04-15T11:32:23.602Z,96706.50
2023-04-15T11:35:13.881Z,96704.34
2023-04-15T11:38:06.759Z,96709.31
2023-04-15T11:40:56.873Z,96705.81
2023-04-15T11:43:48.338Z,96711.59
2023-04-15T11:46:38.354Z,96710.25
2023-04-15T11:49:30.523Z,96720.25
2023-04-15T11:52:19.505Z,96720.44
2023-04-15T11:55:11.619Z,96733.09
2023-04-15T11:58:16.631Z,96724.03
2023-04-15T12:01:08.522Z,96741.34
2023-04-15T12:03:59.910Z,96735.13
2023-04-15T12:06:49.769Z,96742.50
2023-04-15T12:09:40.788Z,96732.75
2023-04-15T12:12:30.884Z,96748.41
2023-04-15T12:15:23.774Z,96743.22
2023-04-15T12:18:22.324Z,96753.28
2023-04-15T12:21:12.634Z,96755.09
2023-04-15T12:24:05.148Z,96756.28
2023-04-15T12:26:57.295Z,96757.44
2023-04-15T12:29:46.405Z,96758.84
2023-04-15T12:32:37.819Z,96756.72
2023-04-15T12:35:29.084Z,96759.88
2023-04-15T12:38:17.937Z,96762.34
2023-04-15T12:41:06.952Z,96773.25
2023-04-15T12:43:55.791Z,96784.06
2023-04-15T12:46:47.465Z,96784.41
2023-04-15T12:49:37.751Z,96790.41
2023-04-15T12:52:30.522Z,96787.56
2023-04-15T12:55:19.465Z,96791.34
2023-04-15T12:58:13.632Z,96790.66
2023-04-15T13:01:03.565Z,96801.38
2023-04-15T13:03:52.468Z,96804.41
2023-04-15T13:06:41.489Z,96810.00
2023-04-15T13:09:33.470Z,96818.25
2023-04-15T13:12:28.160Z,96820.38
2023-04-15T13:15:19.490Z,96829.59
2023-04-15T13:18:17.959Z,96825.47
2023-04-15T13:21:07.600Z,96829.19
2023-04-15T13:23:56.771Z,96829.97
2023-04-15T13:26:50.091Z,96837.63
2023-04-15T13:29:40.272Z,96850.09
2023-04-15T13:32:29.236Z,96840.28
2023-04-15T13:35:18.606Z,96839.03
2023-04-15T13:38:07.535Z,96856.22
2023-04-15T13:40:56.501Z,96854.00
2023-04-15T13:43:47.250Z,96848.41
2023-04-15T13:46:42.769Z,96858.72
2023-04-15T13:49:32.712Z,96860.16
2023-04-15T13:52:21.510Z,96866.00
2023-04-15T13:55:19.894Z,96866.66
2023-04-15T13:58:13.122Z,96869.06
2023-04-15T14:01:07.425Z,96860.81
2023-04-15T14:03:56.727Z,96861.97
2023-04-15T14:06:46.118Z,96868.66
2023-04-15T14:09:35.938Z,96877.66
2023-04-15T14:12:25.082Z,96882.16
2023-04-15T14:15:13.923Z,96874.69
2023-04-15T14:18:04.409Z,96875.75
2023-04-15T14:20:53.287Z,96876.28
2023-04-15T14:23:43.205Z,96881.22
2023-04-15T14:26:32.613Z,96886.25
2023-04-15T14:29:23.589Z,96887.03
2023-04-15T14:32:14.402Z,96891.34
2023-04-15T14:35:13.259Z,96890.38
2023-04-15T14:38:02.485Z,96886.75
2023-04-15T14:40:52.061Z,96891.63
2023-04-15T14:43:44.242Z,96893.31
2023-04-15T14:46:34.140Z,96896.69
2023-04-15T14:49:44.485Z,96900.53
2023-04-15T14:52:54.881Z,96890.59
2023-04-15T14:55:46.060Z,96900.44
2023-04-15T14:58:36.027Z,96903.72
2023-04-15T15:01:25.234Z,96904.59
2023-04-15T15:04:18.575Z,96913.44
2023-04-15T15:07:07.763Z,96910.97
2023-04-15T15:09:58.169Z,96915.59
2023-04-15T15:12:47.206Z,96921.00
2023-04-15T15:15:41.471Z,96924.84
2023-04-15T15:18:31.256Z,96938.56
2023-04-15T15:21:20.178Z,96937.91
2023-04-15T15:24:09.341Z,96937.34
2023-04-15T15:27:02.871Z,96938.69
2023-04-15T15:29:53.618Z,96947.56
2023-04-15T15:32:45.044Z,96944.66
2023-04-15T15:35:33.964Z,96954.13
2023-04-15T15:38:24.441Z,96958.75
2023-04-15T15:41:13.747Z,96961.94
2023-04-15T15:44:04.178Z,96961.56
2023-04-15T15:46:53.754Z,96961.31
2023-04-15T15:49:49.206Z,96964.16
2023-04-15T15:52:38.583Z,96975.59
2023-04-15T15:55:30.899Z,96980.22
2023-04-15T15:58:20.779Z,96979.00
2023-04-15T16:01:11.611Z,96977.28
2023-04-15T16:04:01.423Z,96980.47
2023-04-15T16:06:50.754Z,96978.72
2023-04-15T16:09:40.974Z,96987.88
2023-04-15T16:12:29.983Z,96998.06
2023-04-15T16:15:21.967Z,96992.78
2023-04-15T16:18:13.558Z,96993.31
2023-04-15T16:21:02.372Z,96997.25
2023-04-15T16:23:51.906Z,97001.81
2023-04-15T16:26:41.807Z,96993.72
2023-04-15T16:29:30.788Z,97000.84
2023-04-15T16:32:20.070Z,96999.41
2023-04-15T16:35:11.640Z,97005.47
2023-04-15T16:38:03.108Z,97001.84
2023-04-15T16:40:52.672Z,97002.59
2023-04-15T16:43:42.001Z,97009.81
2023-04-15T16:46:30.975Z,97011.56
2023-04-15T16:49:20.079Z,97013.81
2023-04-15T16:52:15.542Z,97027.63
2023-04-15T16:55:06.101Z,97026.03
2023-04-15T16:58:01.977Z,97034.97
2023-04-15T17:00:52.596Z,97038.25
2023-04-15T17:03:41.780Z,97035.88
2023-04-15T17:06:30.744Z,97042.31
2023-04-15T17:09:21.076Z,97043.22
2023-04-15T17:12:10.236Z,97038.13
2023-04-15T17:14:59.136Z,97046.31
2023-04-15T17:17:48.492Z,97061.94
2023-04-15T17:20:37.541Z,97061.63
2023-04-15T17:23:27.235Z,97065.22
2023-04-15T17:26:19.035Z,97067.47
2023-04-15T17:29:09.395Z,97072.69
2023-04-15T17:32:03.796Z,97079.09
2023-04-15T17:35:15.113Z,97098.50
2023-04-15T17:38:26.249Z,97098.56
2023-04-15T17:41:40.102Z,97096.00
2023-04-15T17:44:49.809Z,97107.38
2023-04-15T17:51:15.941Z,97100.09
2023-04-15T17:54:30.426Z,97107.03
2023-04-15T17:57:43.888Z,97117.41
2023-04-15T18:00:57.196Z,97124.31
2023-04-15T18:04:14.985Z,97130.78
2023-04-15T18:07:26.725Z,97125.78
2023-04-15T18:10:36.778Z,97134.97
2023-04-15T18:13:51.950Z,97147.75
2023-04-15T18:17:01.067Z,97148.34
2023-04-15T18:20:10.711Z,97154.31
2023-04-15T18:22:59.468Z,97156.16
2023-04-15T18:25:48.337Z,97164.19
2023-04-15T18:28:38.756Z,97164.47
2023-04-15T18:31:29.251Z,97160.16
2023-04-15T18:34:18.335Z,97180.09
2023-04-15T18:37:07.409Z,97172.78
2023-04-15T18:39:56.729Z,97173.88
2023-04-15T18:42:45.792Z,97177.66
2023-04-15T18:45:34.712Z,97180.97
2023-04-15T18:48:26.511Z,97186.69
2023-04-15T18:51:16.589Z,97195.50
2023-04-15T18:54:05.658Z,97201.22
2023-04-15T18:56:54.602Z,97211.97
2023-04-15T18:59:44.095Z,97209.44
2023-04-15T19:02:33.190Z,97214.38
2023-04-15T19:05:23.590Z,97216.28
2023-04-15T19:08:13.336Z,97227.63
2023-04-15T19:11:02.912Z,97226.19
2023-04-15T19:13:52.424Z,97223.94
2023-04-15T19:16:41.240Z,97242.78
2023-04-15T19:19:30.519Z,97238.34
2023-04-15T19:22:20.830Z,97238.66
2023-04-15T19:25:11.011Z,97241.63
2023-04-15T19:28:00.190Z,97254.69
2023-04-15T19:30:49.714Z,97254.53
2023-04-15T19:33:41.325Z,97252.75
2023-04-15T19:36:31.490Z,97252.56
2023-04-15T19:39:22.114Z,97253.13
2023-04-15T19:42:12.210Z,97258.13
2023-04-15T19:45:01.209Z,97254.75
2023-04-15T19:47:51.245Z,97259.69
2023-04-15T19:50:40.225Z,97260.34
2023-04-15T19:53:29.096Z,97258.63
2023-04-15T19:56:19.703Z,97265.47
2023-04-15T19:59:08.690Z,97275.66
2023-04-15T20:01:57.734Z,97266.44
2023-04-15T20:04:46.846Z,97262.31
2023-04-15T20:07:35.948Z,97267.41
2023-04-15T20:10:25.188Z,97275.56
2023-04-15T20:13:16.471Z,97277.47
2023-04-15T20:16:07.756Z,97274.63
2023-04-15T20:18:57.450Z,97279.41
2023-04-15T20:21:46.474Z,97288.00
2023-04-15T20:24:35.422Z,97284.84
2023-04-15T20:27:24.825Z,97286.44
2023-04-15T20:30:15.055Z,97294.13
2023-04-15T20:33:05.474Z,97290.16
2023-04-15T20:35:54.890Z,97291.53
2023-04-15T20:38:43.789Z,97295.22
2023-04-15T20:41:32.666Z,97293.81
2023-04-15T20:44:21.572Z,97297.75
2023-04-15T20:47:11.864Z,97294.47
2023-04-15T20:50:00.954Z,97299.84
2023-04-15T20:52:49.878Z,97302.28
2023-04-15T20:55:38.960Z,97299.56
2023-04-15T20:58:28.127Z,97304.34
2023-04-15T21:01:17.102Z,97305.81
2023-04-15T21:04:07.470Z,97315.50
2023-04-15T21:06:56.367Z,97317.09
2023-04-15T21:09:45.391Z,97315.00
2023-04-15T21:12:34.198Z,97316.91
2023-04-15T21:15:22.995Z,97323.00
2023-04-15T21:18:12.296Z,97326.50
2023-04-15T21:21:03.723Z,97332.13
2023-04-15T21:23:52.623Z,97331.47
2023-04-15T21:26:41.589Z,97336.25
2023-04-15T21:29:30.773Z,97338.81
2023-04-15T21:32:20.376Z,97343.09
2023-04-15T21:35:10.535Z,97342.59
2023-04-15T21:38:00.958Z,97343.72
2023-04-15T21:40:51.600Z,97352.19
2023-04-15T21:43:41.279Z,97359.38
2023-04-15T21:46:32.741Z,97354.44
2023-04-15T21:49:25.432Z,97355.19
2023-04-15T21:52:14.659Z,97362.56
2023-04-15T21:55:05.236Z,97360.63
2023-04-15T21:57:53.996Z,97365.09
2023-04-15T22:00:42.879Z,97372.94
2023-04-15T22:03:33.974Z,97372.16
2023-04-15T22:06:23.237Z,97371.53
2023-04-15T22:09:14.135Z,97371.22
2023-04-15T22:12:06.026Z,97380.94
2023-04-15T22:14:56.546Z,97380.63
2023-04-15T22:17:46.893Z,97384.16
2023-04-15T22:20:35.865Z,97392.41
2023-04-15T22:23:24.740Z,97389.91
2023-04-15T22:26:13.542Z,97392.56
2023-04-15T22:29:04.000Z,97396.75
2023-04-15T22:31:53.277Z,97398.03
2023-04-15T22:34:42.568Z,97396.25
2023-04-15T22:37:31.341Z,97399.28
2023-04-15T22:40:20.510Z,97404.41
2023-04-15T22:43:09.436Z,97409.50
2023-04-15T22:46:01.829Z,97407.59
2023-04-15T22:48:50.858Z,97405.03
2023-04-15T22:51:39.770Z,97411.59
2023-04-15T22:54:28.547Z,97408.84
2023-04-15T22:57:17.345Z,97418.41
2023-04-15T23:00:08.318Z,97412.53
2023-04-15T23:02:58.583Z,97415.25
2023-04-15T23:05:47.939Z,97422.09
2023-04-15T23:08:37.404Z,97418.25
2023-04-15T23:11:26.265Z,97423.53
2023-04-15T23:14:15.050Z,97419.06
2023-04-15T23:17:04.129Z,97423.56
2023-04-15T23:19:54.304Z,97429.28
2023-04-15T23:22:43.698Z,97422.59
2023-04-15T23:25:32.604Z,97436.00
2023-04-15T23:28:21.571Z,97433.63
2023-04-15T23:31:10.544Z,97428.50
2023-04-15T23:33:59.377Z,97443.34
2023-04-15T23:36:49.504Z,97439.66
2023-04-15T23:39:38.345Z,97448.44
2023-04-15T23:42:27.212Z,97446.22
2023-04-15T23:45:16.125Z,97440.94
2023-04-15T23:48:06.255Z,97445.59
2023-04-15T23:50:55.034Z,97443.97
2023-04-15T23:53:45.481Z,97437.28
2023-04-15T23:56:34.307Z,97443.03
2023-04-15T23:59:23.127Z,97440.16
